sensor_id;sensor_type;location;lat;lon;timestamp;P1;durP1;ratioP1;P2;durP2;ratioP2
56752;SDS011;42627;42.646;23.642;2023-01-10T00:00:12;12.40;;;4.28;;
56752;SDS011;42627;42.646;23.642;2023-01-10T00:02:13;14.45;;;6.20;;
56752;SDS011;42627;42.646;23.642;2023-01-10T00:04:14;11.48;;;4.40;;
56752;SDS011;42627;42.646;23.642;2023-01-10T00:06:15;13.38;;;4.90;;
56752;SDS011;42627;42.646;23.642;2023-01-10T00:08:16;16.83;;;5.90;;
56752;SDS011;42627;42.646;23.642;2023-01-10T00:10:17;13.55;;;5.38;;
56752;SDS011;42627;42.646;23.642;2023-01-10T00:12:21;8.02;;;4.20;;
56752;SDS011;42627;42.646;23.642;2023-01-10T00:14:40;13.38;;;5.38;;
56752;SDS011;42627;42.646;23.642;2023-01-10T00:16:41;10.75;;;5.13;;
56752;SDS011;42627;42.646;23.642;2023-01-10T00:18:42;9.88;;;5.07;;
56752;SDS011;42627;42.646;23.642;2023-01-10T00:20:43;13.63;;;5.32;;
56752;SDS011;42627;42.646;23.642;2023-01-10T00:22:48;13.20;;;5.55;;
56752;SDS011;42627;42.646;23.642;2023-01-10T00:25:09;13.60;;;5.30;;
56752;SDS011;42627;42.646;23.642;2023-01-10T00:29:39;10.73;;;4.40;;
56752;SDS011;42627;42.646;23.642;2023-01-10T00:31:40;17.63;;;5.78;;
56752;SDS011;42627;42.646;23.642;2023-01-10T00:33:41;10.13;;;4.80;;
56752;SDS011;42627;42.646;23.642;2023-01-10T00:35:42;11.35;;;5.05;;
56752;SDS011;42627;42.646;23.642;2023-01-10T00:37:43;11.63;;;5.05;;
56752;SDS011;42627;42.646;23.642;2023-01-10T00:39:44;9.55;;;5.63;;
56752;SDS011;42627;42.646;23.642;2023-01-10T00:41:45;10.45;;;4.32;;
56752;SDS011;42627;42.646;23.642;2023-01-10T00:46:46;12.55;;;4.85;;
56752;SDS011;42627;42.646;23.642;2023-01-10T00:48:47;17.73;;;5.18;;
56752;SDS011;42627;42.646;23.642;2023-01-10T00:50:48;11.93;;;4.25;;
56752;SDS011;42627;42.646;23.642;2023-01-10T00:52:49;14.05;;;5.90;;
56752;SDS011;42627;42.646;23.642;2023-01-10T00:54:50;10.20;;;5.35;;
56752;SDS011;42627;42.646;23.642;2023-01-10T00:56:51;18.10;;;5.97;;
56752;SDS011;42627;42.646;23.642;2023-01-10T00:58:52;23.83;;;8.93;;
56752;SDS011;42627;42.646;23.642;2023-01-10T01:00:53;16.15;;;7.07;;
56752;SDS011;42627;42.646;23.642;2023-01-10T01:02:54;10.80;;;5.07;;
56752;SDS011;42627;42.646;23.642;2023-01-10T01:04:55;10.48;;;4.30;;
56752;SDS011;42627;42.646;23.642;2023-01-10T01:06:56;14.60;;;5.53;;
56752;SDS011;42627;42.646;23.642;2023-01-10T01:08:57;11.27;;;4.35;;
56752;SDS011;42627;42.646;23.642;2023-01-10T01:10:58;8.80;;;3.88;;
56752;SDS011;42627;42.646;23.642;2023-01-10T01:13:09;13.07;;;4.72;;
56752;SDS011;42627;42.646;23.642;2023-01-10T01:16:02;11.07;;;4.13;;
56752;SDS011;42627;42.646;23.642;2023-01-10T01:18:03;11.02;;;4.65;;
56752;SDS011;42627;42.646;23.642;2023-01-10T01:20:05;11.75;;;5.30;;
56752;SDS011;42627;42.646;23.642;2023-01-10T01:22:06;13.63;;;5.75;;
56752;SDS011;42627;42.646;23.642;2023-01-10T01:24:10;15.27;;;5.88;;
56752;SDS011;42627;42.646;23.642;2023-01-10T01:26:11;11.07;;;5.53;;
56752;SDS011;42627;42.646;23.642;2023-01-10T01:28:12;12.20;;;4.20;;
56752;SDS011;42627;42.646;23.642;2023-01-10T01:30:13;12.05;;;5.32;;
56752;SDS011;42627;42.646;23.642;2023-01-10T01:34:25;8.35;;;3.35;;
56752;SDS011;42627;42.646;23.642;2023-01-10T01:36:26;13.57;;;4.50;;
56752;SDS011;42627;42.646;23.642;2023-01-10T01:38:27;8.45;;;3.47;;
56752;SDS011;42627;42.646;23.642;2023-01-10T01:40:28;12.73;;;5.03;;
56752;SDS011;42627;42.646;23.642;2023-01-10T01:42:30;8.93;;;4.13;;
56752;SDS011;42627;42.646;23.642;2023-01-10T01:44:36;10.80;;;5.03;;
56752;SDS011;42627;42.646;23.642;2023-01-10T01:46:38;10.45;;;5.20;;
56752;SDS011;42627;42.646;23.642;2023-01-10T01:48:40;13.30;;;6.25;;
56752;SDS011;42627;42.646;23.642;2023-01-10T01:55:36;11.60;;;4.97;;
56752;SDS011;42627;42.646;23.642;2023-01-10T01:57:38;12.93;;;5.10;;
56752;SDS011;42627;42.646;23.642;2023-01-10T01:59:40;9.45;;;4.43;;
56752;SDS011;42627;42.646;23.642;2023-01-10T02:01:42;12.02;;;4.75;;
56752;SDS011;42627;42.646;23.642;2023-01-10T02:03:44;8.45;;;3.85;;
56752;SDS011;42627;42.646;23.642;2023-01-10T02:05:48;13.63;;;5.30;;
56752;SDS011;42627;42.646;23.642;2023-01-10T02:07:55;14.70;;;4.85;;
56752;SDS011;42627;42.646;23.642;2023-01-10T02:09:59;10.10;;;4.75;;
56752;SDS011;42627;42.646;23.642;2023-01-10T02:12:01;13.13;;;4.10;;
56752;SDS011;42627;42.646;23.642;2023-01-10T02:14:02;16.90;;;6.10;;
56752;SDS011;42627;42.646;23.642;2023-01-10T02:16:05;9.20;;;4.47;;
56752;SDS011;42627;42.646;23.642;2023-01-10T02:27:49;12.93;;;4.82;;
56752;SDS011;42627;42.646;23.642;2023-01-10T02:34:25;14.90;;;6.65;;
56752;SDS011;42627;42.646;23.642;2023-01-10T02:41:00;12.90;;;4.75;;
56752;SDS011;42627;42.646;23.642;2023-01-10T02:43:09;11.75;;;5.32;;
56752;SDS011;42627;42.646;23.642;2023-01-10T02:45:13;10.60;;;4.72;;
56752;SDS011;42627;42.646;23.642;2023-01-10T02:47:26;11.60;;;5.18;;
56752;SDS011;42627;42.646;23.642;2023-01-10T02:50:15;12.85;;;5.47;;
56752;SDS011;42627;42.646;23.642;2023-01-10T02:52:28;9.40;;;4.25;;
56752;SDS011;42627;42.646;23.642;2023-01-10T02:54:30;10.77;;;5.13;;
56752;SDS011;42627;42.646;23.642;2023-01-10T02:58:49;11.02;;;3.83;;
56752;SDS011;42627;42.646;23.642;2023-01-10T03:03:32;9.85;;;4.68;;
56752;SDS011;42627;42.646;23.642;2023-01-10T03:05:44;17.80;;;5.47;;
56752;SDS011;42627;42.646;23.642;2023-01-10T03:10:21;10.25;;;3.53;;
56752;SDS011;42627;42.646;23.642;2023-01-10T03:14:27;17.25;;;5.93;;
56752;SDS011;42627;42.646;23.642;2023-01-10T03:16:37;10.18;;;5.10;;
56752;SDS011;42627;42.646;23.642;2023-01-10T03:18:58;10.63;;;5.45;;
56752;SDS011;42627;42.646;23.642;2023-01-10T03:21:18;11.95;;;4.65;;
56752;SDS011;42627;42.646;23.642;2023-01-10T03:23:20;8.60;;;4.57;;
56752;SDS011;42627;42.646;23.642;2023-01-10T03:25:23;10.95;;;5.22;;
56752;SDS011;42627;42.646;23.642;2023-01-10T03:32:06;19.38;;;7.05;;
56752;SDS011;42627;42.646;23.642;2023-01-10T03:34:07;19.40;;;7.75;;
56752;SDS011;42627;42.646;23.642;2023-01-10T03:38:46;30.67;;;8.02;;
56752;SDS011;42627;42.646;23.642;2023-01-10T03:40:54;18.77;;;6.07;;
56752;SDS011;42627;42.646;23.642;2023-01-10T03:43:08;21.25;;;7.72;;
56752;SDS011;42627;42.646;23.642;2023-01-10T03:45:29;33.88;;;13.38;;
56752;SDS011;42627;42.646;23.642;2023-01-10T03:47:51;25.08;;;9.40;;
56752;SDS011;42627;42.646;23.642;2023-01-10T03:52:31;17.92;;;7.95;;
56752;SDS011;42627;42.646;23.642;2023-01-10T03:54:33;17.83;;;7.22;;
56752;SDS011;42627;42.646;23.642;2023-01-10T03:56:47;14.45;;;6.88;;
56752;SDS011;42627;42.646;23.642;2023-01-10T03:58:50;14.40;;;6.47;;
56752;SDS011;42627;42.646;23.642;2023-01-10T04:00:51;17.58;;;7.72;;
56752;SDS011;42627;42.646;23.642;2023-01-10T04:02:52;14.85;;;7.22;;
56752;SDS011;42627;42.646;23.642;2023-01-10T04:04:54;11.57;;;5.53;;
56752;SDS011;42627;42.646;23.642;2023-01-10T04:07:00;12.82;;;4.80;;
56752;SDS011;42627;42.646;23.642;2023-01-10T04:09:02;8.32;;;4.13;;
56752;SDS011;42627;42.646;23.642;2023-01-10T04:11:08;13.68;;;6.90;;
56752;SDS011;42627;42.646;23.642;2023-01-10T04:13:09;13.32;;;5.60;;
56752;SDS011;42627;42.646;23.642;2023-01-10T04:15:10;18.85;;;6.68;;
56752;SDS011;42627;42.646;23.642;2023-01-10T04:17:26;14.63;;;6.47;;
56752;SDS011;42627;42.646;23.642;2023-01-10T04:19:42;11.20;;;6.28;;
56752;SDS011;42627;42.646;23.642;2023-01-10T04:22:03;10.68;;;5.47;;
56752;SDS011;42627;42.646;23.642;2023-01-10T04:24:07;16.20;;;5.57;;
56752;SDS011;42627;42.646;23.642;2023-01-10T04:26:08;18.67;;;8.07;;
56752;SDS011;42627;42.646;23.642;2023-01-10T04:28:09;11.43;;;6.70;;
56752;SDS011;42627;42.646;23.642;2023-01-10T04:30:10;9.73;;;4.75;;
56752;SDS011;42627;42.646;23.642;2023-01-10T04:32:11;16.15;;;5.63;;
56752;SDS011;42627;42.646;23.642;2023-01-10T04:34:12;12.45;;;6.20;;
56752;SDS011;42627;42.646;23.642;2023-01-10T04:36:13;12.52;;;5.78;;
56752;SDS011;42627;42.646;23.642;2023-01-10T04:38:15;12.55;;;5.78;;
56752;SDS011;42627;42.646;23.642;2023-01-10T04:40:16;19.48;;;6.93;;
56752;SDS011;42627;42.646;23.642;2023-01-10T04:42:18;14.05;;;5.90;;
56752;SDS011;42627;42.646;23.642;2023-01-10T04:44:19;10.50;;;5.70;;
56752;SDS011;42627;42.646;23.642;2023-01-10T04:46:25;14.05;;;6.53;;
56752;SDS011;42627;42.646;23.642;2023-01-10T04:48:33;10.60;;;5.88;;
56752;SDS011;42627;42.646;23.642;2023-01-10T04:50:36;17.88;;;6.40;;
56752;SDS011;42627;42.646;23.642;2023-01-10T04:52:37;16.50;;;7.13;;
56752;SDS011;42627;42.646;23.642;2023-01-10T04:54:40;10.88;;;6.18;;
56752;SDS011;42627;42.646;23.642;2023-01-10T04:56:41;14.48;;;7.05;;
56752;SDS011;42627;42.646;23.642;2023-01-10T04:58:42;13.48;;;6.25;;
56752;SDS011;42627;42.646;23.642;2023-01-10T05:00:43;12.98;;;5.63;;
56752;SDS011;42627;42.646;23.642;2023-01-10T05:02:44;12.48;;;7.10;;
56752;SDS011;42627;42.646;23.642;2023-01-10T05:04:45;20.08;;;6.95;;
56752;SDS011;42627;42.646;23.642;2023-01-10T05:06:46;14.68;;;6.45;;
56752;SDS011;42627;42.646;23.642;2023-01-10T05:08:48;14.55;;;5.43;;
56752;SDS011;42627;42.646;23.642;2023-01-10T05:10:49;19.08;;;7.32;;
56752;SDS011;42627;42.646;23.642;2023-01-10T05:12:50;13.52;;;5.80;;
56752;SDS011;42627;42.646;23.642;2023-01-10T05:14:51;14.57;;;6.80;;
56752;SDS011;42627;42.646;23.642;2023-01-10T05:16:52;16.73;;;8.85;;
56752;SDS011;42627;42.646;23.642;2023-01-10T05:18:53;21.70;;;7.30;;
56752;SDS011;42627;42.646;23.642;2023-01-10T05:21:01;18.13;;;7.97;;
56752;SDS011;42627;42.646;23.642;2023-01-10T05:23:02;21.63;;;7.13;;
56752;SDS011;42627;42.646;23.642;2023-01-10T05:25:03;19.83;;;6.95;;
56752;SDS011;42627;42.646;23.642;2023-01-10T05:27:04;13.68;;;6.50;;
56752;SDS011;42627;42.646;23.642;2023-01-10T05:29:05;17.67;;;6.38;;
56752;SDS011;42627;42.646;23.642;2023-01-10T05:31:07;16.10;;;7.40;;
56752;SDS011;42627;42.646;23.642;2023-01-10T05:33:08;17.75;;;7.15;;
56752;SDS011;42627;42.646;23.642;2023-01-10T05:37:20;15.43;;;7.00;;
56752;SDS011;42627;42.646;23.642;2023-01-10T05:39:21;22.63;;;7.55;;
56752;SDS011;42627;42.646;23.642;2023-01-10T05:41:22;14.43;;;7.45;;
56752;SDS011;42627;42.646;23.642;2023-01-10T05:43:24;16.60;;;7.10;;
56752;SDS011;42627;42.646;23.642;2023-01-10T05:45:25;19.63;;;7.15;;
56752;SDS011;42627;42.646;23.642;2023-01-10T05:47:26;11.60;;;6.13;;
56752;SDS011;42627;42.646;23.642;2023-01-10T05:49:27;19.30;;;7.40;;
56752;SDS011;42627;42.646;23.642;2023-01-10T05:54:01;18.67;;;6.43;;
56752;SDS011;42627;42.646;23.642;2023-01-10T05:56:07;15.50;;;7.43;;
56752;SDS011;42627;42.646;23.642;2023-01-10T05:58:09;16.88;;;6.18;;
56752;SDS011;42627;42.646;23.642;2023-01-10T06:00:10;13.40;;;6.85;;
56752;SDS011;42627;42.646;23.642;2023-01-10T06:02:11;28.50;;;8.20;;
56752;SDS011;42627;42.646;23.642;2023-01-10T06:04:12;15.25;;;6.43;;
56752;SDS011;42627;42.646;23.642;2023-01-10T06:06:13;15.07;;;6.55;;
56752;SDS011;42627;42.646;23.642;2023-01-10T06:08:15;14.43;;;6.50;;
56752;SDS011;42627;42.646;23.642;2023-01-10T06:10:20;19.48;;;8.82;;
56752;SDS011;42627;42.646;23.642;2023-01-10T06:12:21;18.52;;;7.25;;
56752;SDS011;42627;42.646;23.642;2023-01-10T06:14:22;17.25;;;7.07;;
56752;SDS011;42627;42.646;23.642;2023-01-10T06:16:23;14.15;;;7.32;;
56752;SDS011;42627;42.646;23.642;2023-01-10T06:18:25;18.15;;;9.20;;
56752;SDS011;42627;42.646;23.642;2023-01-10T06:20:44;17.85;;;7.97;;
56752;SDS011;42627;42.646;23.642;2023-01-10T06:25:14;20.88;;;9.43;;
56752;SDS011;42627;42.646;23.642;2023-01-10T06:27:15;22.13;;;7.55;;
56752;SDS011;42627;42.646;23.642;2023-01-10T06:29:16;22.05;;;6.93;;
56752;SDS011;42627;42.646;23.642;2023-01-10T06:31:17;18.90;;;6.97;;
56752;SDS011;42627;42.646;23.642;2023-01-10T06:33:18;19.10;;;8.88;;
56752;SDS011;42627;42.646;23.642;2023-01-10T06:35:19;18.65;;;7.93;;
56752;SDS011;42627;42.646;23.642;2023-01-10T06:37:20;21.83;;;8.57;;
56752;SDS011;42627;42.646;23.642;2023-01-10T06:39:21;23.02;;;7.95;;
56752;SDS011;42627;42.646;23.642;2023-01-10T06:41:22;26.38;;;7.43;;
56752;SDS011;42627;42.646;23.642;2023-01-10T06:43:23;22.15;;;7.03;;
56752;SDS011;42627;42.646;23.642;2023-01-10T06:45:25;13.30;;;7.68;;
56752;SDS011;42627;42.646;23.642;2023-01-10T06:47:26;19.13;;;8.18;;
56752;SDS011;42627;42.646;23.642;2023-01-10T06:49:27;20.45;;;7.68;;
56752;SDS011;42627;42.646;23.642;2023-01-10T06:51:28;23.10;;;9.85;;
56752;SDS011;42627;42.646;23.642;2023-01-10T06:53:30;26.38;;;9.20;;
56752;SDS011;42627;42.646;23.642;2023-01-10T06:55:31;20.23;;;8.40;;
56752;SDS011;42627;42.646;23.642;2023-01-10T06:57:32;19.33;;;6.63;;
56752;SDS011;42627;42.646;23.642;2023-01-10T06:59:34;21.88;;;8.23;;
56752;SDS011;42627;42.646;23.642;2023-01-10T07:01:35;19.35;;;8.88;;
56752;SDS011;42627;42.646;23.642;2023-01-10T07:03:36;16.73;;;8.40;;
56752;SDS011;42627;42.646;23.642;2023-01-10T07:05:39;21.55;;;8.50;;
56752;SDS011;42627;42.646;23.642;2023-01-10T07:07:40;26.85;;;9.93;;
56752;SDS011;42627;42.646;23.642;2023-01-10T07:09:41;29.80;;;13.75;;
56752;SDS011;42627;42.646;23.642;2023-01-10T07:11:43;34.80;;;15.23;;
56752;SDS011;42627;42.646;23.642;2023-01-10T07:13:44;26.85;;;13.02;;
56752;SDS011;42627;42.646;23.642;2023-01-10T07:15:45;23.13;;;9.73;;
56752;SDS011;42627;42.646;23.642;2023-01-10T07:17:47;26.83;;;10.00;;
56752;SDS011;42627;42.646;23.642;2023-01-10T07:19:48;23.50;;;10.10;;
56752;SDS011;42627;42.646;23.642;2023-01-10T07:21:49;19.55;;;9.02;;
56752;SDS011;42627;42.646;23.642;2023-01-10T07:23:50;21.13;;;7.05;;
56752;SDS011;42627;42.646;23.642;2023-01-10T07:25:51;18.60;;;8.10;;
56752;SDS011;42627;42.646;23.642;2023-01-10T07:27:53;28.83;;;9.27;;
56752;SDS011;42627;42.646;23.642;2023-01-10T07:29:57;17.88;;;7.25;;
56752;SDS011;42627;42.646;23.642;2023-01-10T07:31:58;22.83;;;7.63;;
56752;SDS011;42627;42.646;23.642;2023-01-10T07:33:59;22.23;;;8.88;;
56752;SDS011;42627;42.646;23.642;2023-01-10T07:36:01;22.75;;;8.65;;
56752;SDS011;42627;42.646;23.642;2023-01-10T07:38:02;14.10;;;7.00;;
56752;SDS011;42627;42.646;23.642;2023-01-10T07:40:03;19.75;;;7.82;;
56752;SDS011;42627;42.646;23.642;2023-01-10T07:42:04;19.80;;;9.20;;
56752;SDS011;42627;42.646;23.642;2023-01-10T07:44:05;19.95;;;7.68;;
56752;SDS011;42627;42.646;23.642;2023-01-10T07:46:06;16.90;;;8.00;;
56752;SDS011;42627;42.646;23.642;2023-01-10T07:48:08;42.88;;;19.48;;
56752;SDS011;42627;42.646;23.642;2023-01-10T07:50:09;24.45;;;10.95;;
56752;SDS011;42627;42.646;23.642;2023-01-10T07:52:10;26.90;;;12.75;;
56752;SDS011;42627;42.646;23.642;2023-01-10T07:56:22;34.50;;;14.43;;
56752;SDS011;42627;42.646;23.642;2023-01-10T07:58:24;29.40;;;12.95;;
56752;SDS011;42627;42.646;23.642;2023-01-10T08:00:25;27.05;;;10.27;;
56752;SDS011;42627;42.646;23.642;2023-01-10T08:02:26;26.08;;;11.43;;
56752;SDS011;42627;42.646;23.642;2023-01-10T08:04:27;34.88;;;13.73;;
56752;SDS011;42627;42.646;23.642;2023-01-10T08:06:28;26.20;;;12.30;;
56752;SDS011;42627;42.646;23.642;2023-01-10T08:08:29;27.35;;;9.57;;
56752;SDS011;42627;42.646;23.642;2023-01-10T08:10:49;14.25;;;6.47;;
56752;SDS011;42627;42.646;23.642;2023-01-10T08:12:57;19.58;;;8.15;;
56752;SDS011;42627;42.646;23.642;2023-01-10T08:15:19;18.80;;;7.28;;
56752;SDS011;42627;42.646;23.642;2023-01-10T08:17:20;15.70;;;7.03;;
56752;SDS011;42627;42.646;23.642;2023-01-10T08:19:22;16.48;;;6.40;;
56752;SDS011;42627;42.646;23.642;2023-01-10T08:21:23;25.95;;;8.13;;
56752;SDS011;42627;42.646;23.642;2023-01-10T08:23:24;14.82;;;6.10;;
56752;SDS011;42627;42.646;23.642;2023-01-10T08:25:25;20.08;;;8.88;;
56752;SDS011;42627;42.646;23.642;2023-01-10T08:27:26;15.95;;;6.03;;
56752;SDS011;42627;42.646;23.642;2023-01-10T08:29:32;17.45;;;6.68;;
56752;SDS011;42627;42.646;23.642;2023-01-10T08:31:33;21.05;;;8.07;;
56752;SDS011;42627;42.646;23.642;2023-01-10T08:33:37;23.30;;;9.02;;
56752;SDS011;42627;42.646;23.642;2023-01-10T08:35:40;22.92;;;8.23;;
56752;SDS011;42627;42.646;23.642;2023-01-10T08:37:41;24.65;;;9.40;;
56752;SDS011;42627;42.646;23.642;2023-01-10T08:44:36;17.10;;;7.95;;
56752;SDS011;42627;42.646;23.642;2023-01-10T08:46:37;21.35;;;7.32;;
56752;SDS011;42627;42.646;23.642;2023-01-10T08:48:38;21.83;;;7.75;;
56752;SDS011;42627;42.646;23.642;2023-01-10T08:50:39;14.15;;;5.97;;
56752;SDS011;42627;42.646;23.642;2023-01-10T08:52:40;19.65;;;7.35;;
56752;SDS011;42627;42.646;23.642;2023-01-10T08:54:41;19.80;;;7.35;;
56752;SDS011;42627;42.646;23.642;2023-01-10T08:56:42;15.20;;;6.35;;
56752;SDS011;42627;42.646;23.642;2023-01-10T08:58:49;25.13;;;9.10;;
56752;SDS011;42627;42.646;23.642;2023-01-10T09:00:50;31.42;;;9.70;;
56752;SDS011;42627;42.646;23.642;2023-01-10T09:02:51;21.85;;;8.98;;
56752;SDS011;42627;42.646;23.642;2023-01-10T09:04:52;23.15;;;9.55;;
56752;SDS011;42627;42.646;23.642;2023-01-10T09:06:54;27.77;;;10.35;;
56752;SDS011;42627;42.646;23.642;2023-01-10T09:09:04;32.55;;;11.60;;
56752;SDS011;42627;42.646;23.642;2023-01-10T09:16:15;23.20;;;10.13;;
56752;SDS011;42627;42.646;23.642;2023-01-10T09:18:16;21.63;;;8.32;;
56752;SDS011;42627;42.646;23.642;2023-01-10T09:20:17;25.00;;;11.35;;
56752;SDS011;42627;42.646;23.642;2023-01-10T09:22:18;32.45;;;12.23;;
56752;SDS011;42627;42.646;23.642;2023-01-10T09:24:19;28.67;;;12.25;;
56752;SDS011;42627;42.646;23.642;2023-01-10T09:26:20;28.67;;;9.35;;
56752;SDS011;42627;42.646;23.642;2023-01-10T09:28:21;30.17;;;11.35;;
56752;SDS011;42627;42.646;23.642;2023-01-10T09:30:23;25.10;;;11.05;;
56752;SDS011;42627;42.646;23.642;2023-01-10T09:32:25;31.10;;;13.40;;
56752;SDS011;42627;42.646;23.642;2023-01-10T09:34:26;37.95;;;16.20;;
56752;SDS011;42627;42.646;23.642;2023-01-10T09:36:27;37.45;;;16.23;;
56752;SDS011;42627;42.646;23.642;2023-01-10T09:38:28;37.65;;;15.27;;
56752;SDS011;42627;42.646;23.642;2023-01-10T09:52:01;55.70;;;20.27;;
56752;SDS011;42627;42.646;23.642;2023-01-10T09:54:18;41.40;;;17.27;;
56752;SDS011;42627;42.646;23.642;2023-01-10T09:56:23;38.93;;;15.87;;
56752;SDS011;42627;42.646;23.642;2023-01-10T09:58:29;36.45;;;13.63;;
56752;SDS011;42627;42.646;23.642;2023-01-10T10:00:38;73.90;;;30.10;;
56752;SDS011;42627;42.646;23.642;2023-01-10T10:07:19;20.77;;;9.45;;
56752;SDS011;42627;42.646;23.642;2023-01-10T10:09:24;18.35;;;9.43;;
56752;SDS011;42627;42.646;23.642;2023-01-10T10:26:43;32.15;;;11.50;;
56752;SDS011;42627;42.646;23.642;2023-01-10T10:35:16;40.45;;;14.02;;
56752;SDS011;42627;42.646;23.642;2023-01-10T10:37:26;24.52;;;9.85;;
56752;SDS011;42627;42.646;23.642;2023-01-10T10:39:35;23.52;;;10.88;;
56752;SDS011;42627;42.646;23.642;2023-01-10T10:41:38;21.80;;;9.23;;
56752;SDS011;42627;42.646;23.642;2023-01-10T10:43:46;24.65;;;11.35;;
56752;SDS011;42627;42.646;23.642;2023-01-10T10:46:07;32.15;;;12.63;;
56752;SDS011;42627;42.646;23.642;2023-01-10T10:49:05;25.77;;;11.90;;
56752;SDS011;42627;42.646;23.642;2023-01-10T10:53:27;30.90;;;12.18;;
56752;SDS011;42627;42.646;23.642;2023-01-10T10:55:33;24.15;;;11.82;;
56752;SDS011;42627;42.646;23.642;2023-01-10T10:57:36;31.65;;;12.25;;
56752;SDS011;42627;42.646;23.642;2023-01-10T10:59:37;32.22;;;12.45;;
56752;SDS011;42627;42.646;23.642;2023-01-10T11:01:38;30.48;;;12.48;;
56752;SDS011;42627;42.646;23.642;2023-01-10T11:03:46;40.83;;;17.33;;
56752;SDS011;42627;42.646;23.642;2023-01-10T11:05:48;31.58;;;14.70;;
56752;SDS011;42627;42.646;23.642;2023-01-10T11:07:51;40.38;;;15.02;;
56752;SDS011;42627;42.646;23.642;2023-01-10T11:09:54;35.95;;;13.77;;
56752;SDS011;42627;42.646;23.642;2023-01-10T11:11:57;29.40;;;12.95;;
56752;SDS011;42627;42.646;23.642;2023-01-10T11:14:13;21.65;;;10.27;;
56752;SDS011;42627;42.646;23.642;2023-01-10T11:18:36;26.98;;;11.02;;
56752;SDS011;42627;42.646;23.642;2023-01-10T11:20:44;20.95;;;8.88;;
56752;SDS011;42627;42.646;23.642;2023-01-10T11:22:47;24.63;;;9.10;;
56752;SDS011;42627;42.646;23.642;2023-01-10T11:24:52;19.60;;;8.88;;
56752;SDS011;42627;42.646;23.642;2023-01-10T11:26:55;21.42;;;8.60;;
56752;SDS011;42627;42.646;23.642;2023-01-10T11:31:26;24.50;;;10.90;;
56752;SDS011;42627;42.646;23.642;2023-01-10T11:33:31;29.63;;;12.32;;
56752;SDS011;42627;42.646;23.642;2023-01-10T11:35:37;27.13;;;11.95;;
56752;SDS011;42627;42.646;23.642;2023-01-10T11:37:40;31.10;;;12.18;;
56752;SDS011;42627;42.646;23.642;2023-01-10T11:39:41;38.15;;;15.55;;
56752;SDS011;42627;42.646;23.642;2023-01-10T11:41:42;23.50;;;10.90;;
56752;SDS011;42627;42.646;23.642;2023-01-10T11:43:49;26.23;;;10.25;;
56752;SDS011;42627;42.646;23.642;2023-01-10T11:45:55;25.52;;;9.75;;
56752;SDS011;42627;42.646;23.642;2023-01-10T11:49:58;37.70;;;13.98;;
56752;SDS011;42627;42.646;23.642;2023-01-10T11:52:04;40.85;;;12.82;;
56752;SDS011;42627;42.646;23.642;2023-01-10T11:56:08;26.02;;;11.23;;
56752;SDS011;42627;42.646;23.642;2023-01-10T11:58:11;43.10;;;14.68;;
56752;SDS011;42627;42.646;23.642;2023-01-10T12:00:14;38.95;;;15.02;;
56752;SDS011;42627;42.646;23.642;2023-01-10T12:02:23;37.17;;;15.35;;
56752;SDS011;42627;42.646;23.642;2023-01-10T12:04:28;35.67;;;13.45;;
56752;SDS011;42627;42.646;23.642;2023-01-10T12:06:31;32.13;;;12.82;;
56752;SDS011;42627;42.646;23.642;2023-01-10T12:08:33;29.58;;;11.23;;
56752;SDS011;42627;42.646;23.642;2023-01-10T12:10:35;36.45;;;13.10;;
56752;SDS011;42627;42.646;23.642;2023-01-10T12:12:36;37.10;;;15.80;;
56752;SDS011;42627;42.646;23.642;2023-01-10T12:14:37;27.90;;;13.88;;
56752;SDS011;42627;42.646;23.642;2023-01-10T12:16:39;36.13;;;14.63;;
56752;SDS011;42627;42.646;23.642;2023-01-10T12:18:40;36.38;;;16.10;;
56752;SDS011;42627;42.646;23.642;2023-01-10T12:20:44;34.42;;;13.88;;
56752;SDS011;42627;42.646;23.642;2023-01-10T12:22:50;32.30;;;12.85;;
56752;SDS011;42627;42.646;23.642;2023-01-10T12:24:52;25.58;;;10.45;;
56752;SDS011;42627;42.646;23.642;2023-01-10T12:26:54;27.50;;;12.15;;
56752;SDS011;42627;42.646;23.642;2023-01-10T12:28:56;33.75;;;13.52;;
56752;SDS011;42627;42.646;23.642;2023-01-10T12:30:59;26.85;;;10.75;;
56752;SDS011;42627;42.646;23.642;2023-01-10T12:33:02;28.58;;;13.13;;
56752;SDS011;42627;42.646;23.642;2023-01-10T12:35:09;25.65;;;11.43;;
56752;SDS011;42627;42.646;23.642;2023-01-10T12:37:19;38.67;;;13.65;;
56752;SDS011;42627;42.646;23.642;2023-01-10T12:43:53;28.60;;;9.82;;
56752;SDS011;42627;42.646;23.642;2023-01-10T12:46:21;26.98;;;10.30;;
56752;SDS011;42627;42.646;23.642;2023-01-10T12:48:29;25.55;;;8.70;;
56752;SDS011;42627;42.646;23.642;2023-01-10T12:50:35;24.88;;;11.23;;
56752;SDS011;42627;42.646;23.642;2023-01-10T12:52:43;26.30;;;11.07;;
56752;SDS011;42627;42.646;23.642;2023-01-10T12:54:47;26.27;;;11.45;;
56752;SDS011;42627;42.646;23.642;2023-01-10T12:56:48;30.73;;;11.35;;
56752;SDS011;42627;42.646;23.642;2023-01-10T12:58:51;25.15;;;9.93;;
56752;SDS011;42627;42.646;23.642;2023-01-10T13:00:54;28.23;;;11.02;;
56752;SDS011;42627;42.646;23.642;2023-01-10T13:02:58;28.05;;;10.90;;
56752;SDS011;42627;42.646;23.642;2023-01-10T13:04:59;23.92;;;9.20;;
56752;SDS011;42627;42.646;23.642;2023-01-10T13:07:02;30.02;;;11.45;;
56752;SDS011;42627;42.646;23.642;2023-01-10T13:09:07;24.70;;;11.85;;
56752;SDS011;42627;42.646;23.642;2023-01-10T13:11:09;29.90;;;12.43;;
56752;SDS011;42627;42.646;23.642;2023-01-10T13:19:32;22.85;;;9.43;;
56752;SDS011;42627;42.646;23.642;2023-01-10T13:21:33;25.88;;;11.10;;
56752;SDS011;42627;42.646;23.642;2023-01-10T13:23:37;32.22;;;11.80;;
56752;SDS011;42627;42.646;23.642;2023-01-10T13:25:40;22.08;;;10.13;;
56752;SDS011;42627;42.646;23.642;2023-01-10T13:27:41;23.95;;;10.73;;
56752;SDS011;42627;42.646;23.642;2023-01-10T13:29:42;25.33;;;13.07;;
56752;SDS011;42627;42.646;23.642;2023-01-10T13:31:43;30.40;;;12.27;;
56752;SDS011;42627;42.646;23.642;2023-01-10T13:36:19;38.78;;;13.65;;
56752;SDS011;42627;42.646;23.642;2023-01-10T13:38:22;31.30;;;11.25;;
56752;SDS011;42627;42.646;23.642;2023-01-10T13:40:27;25.30;;;11.95;;
56752;SDS011;42627;42.646;23.642;2023-01-10T13:42:30;33.90;;;11.85;;
56752;SDS011;42627;42.646;23.642;2023-01-10T13:47:01;28.77;;;12.93;;
56752;SDS011;42627;42.646;23.642;2023-01-10T13:51:21;29.70;;;12.90;;
56752;SDS011;42627;42.646;23.642;2023-01-10T14:00:00;29.88;;;12.38;;
56752;SDS011;42627;42.646;23.642;2023-01-10T14:04:33;26.38;;;12.00;;
56752;SDS011;42627;42.646;23.642;2023-01-10T14:06:36;34.83;;;12.35;;
56752;SDS011;42627;42.646;23.642;2023-01-10T14:08:46;29.13;;;12.13;;
56752;SDS011;42627;42.646;23.642;2023-01-10T14:10:48;30.58;;;13.07;;
56752;SDS011;42627;42.646;23.642;2023-01-10T14:13:04;38.22;;;13.70;;
56752;SDS011;42627;42.646;23.642;2023-01-10T14:17:31;40.92;;;16.23;;
56752;SDS011;42627;42.646;23.642;2023-01-10T14:19:33;69.97;;;24.42;;
56752;SDS011;42627;42.646;23.642;2023-01-10T14:23:48;58.55;;;18.98;;
56752;SDS011;42627;42.646;23.642;2023-01-10T14:25:51;39.15;;;15.80;;
56752;SDS011;42627;42.646;23.642;2023-01-10T14:27:52;33.15;;;15.65;;
56752;SDS011;42627;42.646;23.642;2023-01-10T14:29:57;34.70;;;15.75;;
56752;SDS011;42627;42.646;23.642;2023-01-10T14:32:05;40.70;;;15.82;;